茨城 の空港の天気 - METARとTAF

茨城空港(百里飛行場) ( RJAH / IBR ) - 茨城県小美玉市
飛行場実況気象(Metar)
観測時間06/22 01:00 JST (06/21 16:00 UTC)
風向・風速静穏 0m/s
視程600m
天気現象
全天の4割程度の雲 雲底高度 不明
全天の8割程度の雲 雲底高度 30m
気温18℃
湿度100%
気圧1004hPa
METARRJAH 211600Z 00000KT 0600 R03/0400V1100D FG SCT000 BKN001 18/18 Q1004
過去の天気等 Google飛行場航空写真 Wunderground天気予報

過去48時間のMETAR

飛行場予報(TAF)
発表時間: 6/22 00:34 JST (6/21 15:34 UTC)
予報対象時間: 22日0時 JST ~ 23日3時 JST
風向・風速北北西 2m/s
視程6000m
少しの雲 雲底高度 240m
全天の8割程度の雲 雲底高度 370m
22日0時 JST ~ 22日6時 JST に一時的に
視程800m
天気現象
全天を覆う雲 鉛直視程 30m
22日9時 JST ~ 22日12時 JST に徐々に
風向・風速南 5m/s
22日21時 JST ~ 22日24時 JST に徐々に
風向・風速北東 2m/s
TAF AMD RJAH 211534Z 2115/2218 34004KT 6000 FEW008 BKN012
TEMPO 2115/2121 0800 FG VV001
BECMG 2200/2203 18010KT
BECMG 2212/2215 04004KT
日本の空港のMETAR・TAFへのリンク

RJTT 東京国際空港
RJAA 新東京国際空港
RJBB 関西国際空港
RJOO 大阪空港
RJGG 中部国際空港
RJCC 新千歳空港
RJFF 福岡空港
ROAH 那覇空港


RJEC 旭川空港
RJCH 函館空港
RJCK 釧路空港
RJCM 女満別空港
RJCB 帯広空港
RJSA 青森空港
RJSS 仙台空港
RJSK 秋田空港
RJSF 福島空港
RJAH 茨城空港
RJSN 新潟空港
RJNT 富山空港
RJNK 小松飛行場
RJNS 静岡空港
RJOH 美保飛行場
RJOC 出雲空港
RJOB 岡山空港
RJOA 広島空港
RJOI 岩国飛行場
RJOT 高松空港
RJOM 松山空港
RJOK 高知空港
RJFR 北九州空港
RJFT 熊本空港
RJFU 長崎空港
RJFS 佐賀空港
RJFO 大分空港
RJFM 宮崎空港
RJFK 鹿児島空港
ROIG 石垣島空港
RJTY 横田飛行場
ROTM 普天間飛行場
RODN 嘉手納飛行場